Terminal Aerodrome Forecast
Issued by NWS Omaha/Valley, NE

Home | Current Version | Previous Version | Graphics & Text | Print | Product List | Glossary On
Versions: 1 2 3 4 5 6 7 8 9 10 11 12 13 14 15
000
FTUS43 KOAX 272214 AAA
TAFOFK
TAF AMD
KOFK 272214Z 2722/2818 33020G27KT P6SM BKN100
     FM280000 32013KT P6SM BKN100
     FM280300 28008KT P6SM SCT050 BKN200
     FM281400 30015G25KT P6SM SCT250
     FM281700 30020G28KT P6SM SCT035=

USA.gov is the U.S. government's official web portal to all federal, state and local government web resources and services.